<?xml version="1.0" encoding="UTF-8"?><gpx version="1.1" creator="Relive" xmlns="http://www.topografix.com/GPX/1/1" xmlns:xsi="http://www.w3.org/2001/XMLSchema-instance" xsi:schemaLocation="http://www.topografix.com/GPX/1/1 http://www.topografix.com/GPX/1/1/gpx.xsd http://www.garmin.com/xmlschemas/TrackPointExtension/v1 http://www.garmin.com/xmlschemas/TrackPointExtensionv1.xsd http://www.garmin.com/xmlschemas/GpxExtensions/v3 http://www.garmin.com/xmlschemas/GpxExtensionsv3.xsd" xmlns:gpxtpx="http://www.garmin.com/xmlschemas/TrackPointExtension/v1" xmlns:gpxx="http://www.garmin.com/xmlschemas/GpxExtensions/v3"><metadata><time>2023-07-10T10:02:02.000Z</time><name>Padelky-Borufkáč</name></metadata><trk><trkseg><trkpt lat="48.727769" lon="17.53511"><time>2023-07-10T10:02:02.000Z</time><ele>479.13</ele></trkpt><trkpt lat="48.727826" lon="17.5351"><time>2023-07-10T10:02:13.000Z</time><ele>477.74</ele></trkpt><trkpt lat="48.727887" lon="17.535095"><time>2023-07-10T10:02:16.000Z</time><ele>480.06</ele></trkpt><trkpt lat="48.727945" lon="17.535137"><time>2023-07-10T10:02:19.000Z</time><ele>480.58</ele></trkpt><trkpt lat="48.727956" lon="17.535234"><time>2023-07-10T10:02:21.000Z</time><ele>483.46</ele></trkpt><trkpt lat="48.727942" lon="17.535344"><time>2023-07-10T10:02:23.000Z</time><ele>484</ele></trkpt><trkpt lat="48.728" lon="17.535331"><time>2023-07-10T10:02:26.000Z</time><ele>485.86</ele></trkpt><trkpt lat="48.728062" lon="17.535337"><time>2023-07-10T10:02:29.000Z</time><ele>486.72</ele></trkpt><trkpt lat="48.728108" lon="17.53535"><time>2023-07-10T10:02:31.000Z</time><ele>487.62</ele></trkpt><trkpt lat="48.728182" lon="17.535335"><time>2023-07-10T10:02:33.000Z</time><ele>486.38</ele></trkpt><trkpt lat="48.728303" lon="17.535521"><time>2023-07-10T10:02:37.000Z</time><ele>485.46</ele></trkpt><trkpt lat="48.728322" lon="17.535588"><time>2023-07-10T10:02:38.000Z</time><ele>485.29</ele></trkpt><trkpt lat="48.728352" lon="17.535697"><time>2023-07-10T10:02:40.000Z</time><ele>484.49</ele></trkpt><trkpt lat="48.728359" lon="17.53577"><time>2023-07-10T10:02:42.000Z</time><ele>483.57</ele></trkpt><trkpt lat="48.728403" lon="17.535757"><time>2023-07-10T10:02:43.000Z</time><ele>482.69</ele></trkpt><trkpt lat="48.728458" lon="17.535751"><time>2023-07-10T10:02:45.000Z</time><ele>480.93</ele></trkpt><trkpt lat="48.728537" lon="17.535763"><time>2023-07-10T10:02:47.000Z</time><ele>480.23</ele></trkpt><trkpt lat="48.728581" lon="17.535818"><time>2023-07-10T10:02:49.000Z</time><ele>480.18</ele></trkpt><trkpt lat="48.728632" lon="17.535967"><time>2023-07-10T10:02:52.000Z</time><ele>479.72</ele></trkpt><trkpt lat="48.728662" lon="17.536022"><time>2023-07-10T10:02:53.000Z</time><ele>479.94</ele></trkpt><trkpt lat="48.728697" lon="17.536072"><time>2023-07-10T10:02:54.000Z</time><ele>479.21</ele></trkpt><trkpt lat="48.728753" lon="17.536116"><time>2023-07-10T10:02:56.000Z</time><ele>478.35</ele></trkpt><trkpt lat="48.72881" lon="17.536059"><time>2023-07-10T10:02:58.000Z</time><ele>477.47</ele></trkpt><trkpt lat="48.728833" lon="17.536"><time>2023-07-10T10:02:59.000Z</time><ele>477.55</ele></trkpt><trkpt lat="48.728911" lon="17.535953"><time>2023-07-10T10:03:01.000Z</time><ele>477.44</ele></trkpt><trkpt lat="48.72898" lon="17.535941"><time>2023-07-10T10:03:03.000Z</time><ele>476.66</ele></trkpt><trkpt lat="48.72904" lon="17.535997"><time>2023-07-10T10:03:05.000Z</time><ele>474.58</ele></trkpt><trkpt lat="48.729102" lon="17.536021"><time>2023-07-10T10:03:07.000Z</time><ele>473.2</ele></trkpt><trkpt lat="48.729145" lon="17.535992"><time>2023-07-10T10:03:08.000Z</time><ele>472.08</ele></trkpt><trkpt lat="48.729184" lon="17.535951"><time>2023-07-10T10:03:09.000Z</time><ele>471.79</ele></trkpt><trkpt lat="48.729232" lon="17.535906"><time>2023-07-10T10:03:11.000Z</time><ele>471.69</ele></trkpt><trkpt lat="48.729299" lon="17.535885"><time>2023-07-10T10:03:14.000Z</time><ele>471.28</ele></trkpt><trkpt lat="48.729344" lon="17.535887"><time>2023-07-10T10:03:15.000Z</time><ele>469.55</ele></trkpt><trkpt lat="48.729419" lon="17.535938"><time>2023-07-10T10:03:17.000Z</time><ele>467.99</ele></trkpt><trkpt lat="48.729469" lon="17.536016"><time>2023-07-10T10:03:19.000Z</time><ele>468.34</ele></trkpt><trkpt lat="48.729502" lon="17.5361"><time>2023-07-10T10:03:21.000Z</time><ele>466.65</ele></trkpt><trkpt lat="48.729526" lon="17.536177"><time>2023-07-10T10:03:23.000Z</time><ele>465.09</ele></trkpt><trkpt lat="48.729541" lon="17.536243"><time>2023-07-10T10:03:25.000Z</time><ele>462.67</ele></trkpt><trkpt lat="48.729579" lon="17.536365"><time>2023-07-10T10:03:27.000Z</time><ele>461.06</ele></trkpt><trkpt lat="48.72957" lon="17.536494"><time>2023-07-10T10:03:29.000Z</time><ele>460.75</ele></trkpt><trkpt lat="48.729532" lon="17.536583"><time>2023-07-10T10:03:31.000Z</time><ele>461.99</ele></trkpt><trkpt lat="48.729599" lon="17.536649"><time>2023-07-10T10:03:34.000Z</time><ele>457.57</ele></trkpt><trkpt lat="48.72964" lon="17.536679"><time>2023-07-10T10:03:35.000Z</time><ele>456.97</ele></trkpt><trkpt lat="48.729661" lon="17.536809"><time>2023-07-10T10:03:37.000Z</time><ele>455.99</ele></trkpt><trkpt lat="48.729662" lon="17.53689"><time>2023-07-10T10:03:38.000Z</time><ele>454.64</ele></trkpt><trkpt lat="48.729733" lon="17.537003"><time>2023-07-10T10:03:40.000Z</time><ele>455.8</ele></trkpt><trkpt lat="48.7298" lon="17.537073"><time>2023-07-10T10:03:42.000Z</time><ele>455.68</ele></trkpt><trkpt lat="48.729801" lon="17.537175"><time>2023-07-10T10:03:44.000Z</time><ele>456.06</ele></trkpt><trkpt lat="48.729822" lon="17.537241"><time>2023-07-10T10:03:45.000Z</time><ele>457</ele></trkpt><trkpt lat="48.72985" lon="17.537299"><time>2023-07-10T10:03:46.000Z</time><ele>456.82</ele></trkpt><trkpt lat="48.7299" lon="17.537585"><time>2023-07-10T10:03:49.000Z</time><ele>451.69</ele></trkpt><trkpt lat="48.729854" lon="17.537797"><time>2023-07-10T10:03:51.000Z</time><ele>449.8</ele></trkpt><trkpt lat="48.729869" lon="17.537879"><time>2023-07-10T10:03:52.000Z</time><ele>449.97</ele></trkpt><trkpt lat="48.72987" lon="17.537974"><time>2023-07-10T10:03:53.000Z</time><ele>446.78</ele></trkpt><trkpt lat="48.729858" lon="17.538052"><time>2023-07-10T10:03:54.000Z</time><ele>446.84</ele></trkpt><trkpt lat="48.729859" lon="17.538135"><time>2023-07-10T10:03:55.000Z</time><ele>447.15</ele></trkpt><trkpt lat="48.729887" lon="17.538231"><time>2023-07-10T10:03:56.000Z</time><ele>445</ele></trkpt><trkpt lat="48.729925" lon="17.53832"><time>2023-07-10T10:03:57.000Z</time><ele>443.1</ele></trkpt><trkpt lat="48.729958" lon="17.538445"><time>2023-07-10T10:03:59.000Z</time><ele>440.38</ele></trkpt><trkpt lat="48.729973" lon="17.538526"><time>2023-07-10T10:04:00.000Z</time><ele>438.76</ele></trkpt><trkpt lat="48.729995" lon="17.538598"><time>2023-07-10T10:04:01.000Z</time><ele>438.23</ele></trkpt><trkpt lat="48.73002" lon="17.538664"><time>2023-07-10T10:04:02.000Z</time><ele>437.98</ele></trkpt><trkpt lat="48.730059" lon="17.538723"><time>2023-07-10T10:04:04.000Z</time><ele>437.72</ele></trkpt><trkpt lat="48.730094" lon="17.538773"><time>2023-07-10T10:04:06.000Z</time><ele>436.82</ele></trkpt><trkpt lat="48.730136" lon="17.538823"><time>2023-07-10T10:04:08.000Z</time><ele>438.14</ele></trkpt><trkpt lat="48.73018" lon="17.538883"><time>2023-07-10T10:04:10.000Z</time><ele>438.01</ele></trkpt><trkpt lat="48.730231" lon="17.538947"><time>2023-07-10T10:04:12.000Z</time><ele>438.6</ele></trkpt><trkpt lat="48.730273" lon="17.539"><time>2023-07-10T10:04:14.000Z</time><ele>437.42</ele></trkpt><trkpt lat="48.730319" lon="17.539045"><time>2023-07-10T10:04:16.000Z</time><ele>436.84</ele></trkpt><trkpt lat="48.730374" lon="17.539084"><time>2023-07-10T10:04:18.000Z</time><ele>436.23</ele></trkpt><trkpt lat="48.730437" lon="17.539125"><time>2023-07-10T10:04:20.000Z</time><ele>436.1</ele></trkpt><trkpt lat="48.730494" lon="17.539164"><time>2023-07-10T10:04:22.000Z</time><ele>434.66</ele></trkpt><trkpt lat="48.730549" lon="17.539184"><time>2023-07-10T10:04:24.000Z</time><ele>432.52</ele></trkpt><trkpt lat="48.730606" lon="17.539196"><time>2023-07-10T10:04:26.000Z</time><ele>430.41</ele></trkpt><trkpt lat="48.730669" lon="17.539204"><time>2023-07-10T10:04:28.000Z</time><ele>428.55</ele></trkpt><trkpt lat="48.730737" lon="17.539211"><time>2023-07-10T10:04:30.000Z</time><ele>426.48</ele></trkpt><trkpt lat="48.730811" lon="17.539208"><time>2023-07-10T10:04:32.000Z</time><ele>424.72</ele></trkpt><trkpt lat="48.730906" lon="17.539145"><time>2023-07-10T10:04:34.000Z</time><ele>422.59</ele></trkpt><trkpt lat="48.730963" lon="17.539127"><time>2023-07-10T10:04:35.000Z</time><ele>422.19</ele></trkpt><trkpt lat="48.731279" lon="17.539037"><time>2023-07-10T10:04:40.000Z</time><ele>417.75</ele></trkpt><trkpt lat="48.731341" lon="17.539036"><time>2023-07-10T10:04:41.000Z</time><ele>417.24</ele></trkpt><trkpt lat="48.7314" lon="17.539045"><time>2023-07-10T10:04:42.000Z</time><ele>416.8</ele></trkpt><trkpt lat="48.731456" lon="17.53906"><time>2023-07-10T10:04:43.000Z</time><ele>416.62</ele></trkpt><trkpt lat="48.731503" lon="17.539082"><time>2023-07-10T10:04:44.000Z</time><ele>417.04</ele></trkpt><trkpt lat="48.731581" lon="17.5391"><time>2023-07-10T10:04:46.000Z</time><ele>416.93</ele></trkpt><trkpt lat="48.731661" lon="17.539118"><time>2023-07-10T10:04:48.000Z</time><ele>417.14</ele></trkpt><trkpt lat="48.731741" lon="17.539103"><time>2023-07-10T10:04:50.000Z</time><ele>416.42</ele></trkpt><trkpt lat="48.731827" lon="17.539108"><time>2023-07-10T10:04:52.000Z</time><ele>416.22</ele></trkpt><trkpt lat="48.731915" lon="17.5391"><time>2023-07-10T10:04:54.000Z</time><ele>415.84</ele></trkpt><trkpt lat="48.732" lon="17.539086"><time>2023-07-10T10:04:56.000Z</time><ele>415.46</ele></trkpt><trkpt lat="48.732085" lon="17.539073"><time>2023-07-10T10:04:58.000Z</time><ele>415.37</ele></trkpt><trkpt lat="48.732169" lon="17.539052"><time>2023-07-10T10:05:00.000Z</time><ele>415.53</ele></trkpt><trkpt lat="48.732253" lon="17.539024"><time>2023-07-10T10:05:02.000Z</time><ele>415.71</ele></trkpt><trkpt lat="48.732336" lon="17.53899"><time>2023-07-10T10:05:04.000Z</time><ele>415.79</ele></trkpt><trkpt lat="48.732419" lon="17.538957"><time>2023-07-10T10:05:06.000Z</time><ele>416.11</ele></trkpt><trkpt lat="48.732498" lon="17.538913"><time>2023-07-10T10:05:08.000Z</time><ele>416.27</ele></trkpt><trkpt lat="48.73258" lon="17.538872"><time>2023-07-10T10:05:10.000Z</time><ele>416.1</ele></trkpt><trkpt lat="48.732662" lon="17.538833"><time>2023-07-10T10:05:12.000Z</time><ele>416.49</ele></trkpt><trkpt lat="48.732741" lon="17.538792"><time>2023-07-10T10:05:14.000Z</time><ele>417.17</ele></trkpt><trkpt lat="48.732818" lon="17.538747"><time>2023-07-10T10:05:16.000Z</time><ele>418.05</ele></trkpt><trkpt lat="48.73289" lon="17.538704"><time>2023-07-10T10:05:18.000Z</time><ele>418.85</ele></trkpt><trkpt lat="48.732966" lon="17.538713"><time>2023-07-10T10:05:20.000Z</time><ele>421.34</ele></trkpt><trkpt lat="48.733032" lon="17.538661"><time>2023-07-10T10:05:22.000Z</time><ele>422.42</ele></trkpt><trkpt lat="48.733092" lon="17.538615"><time>2023-07-10T10:05:24.000Z</time><ele>423.74</ele></trkpt><trkpt lat="48.73314" lon="17.538571"><time>2023-07-10T10:05:26.000Z</time><ele>424.07</ele></trkpt><trkpt lat="48.733191" lon="17.5385"><time>2023-07-10T10:05:29.000Z</time><ele>427.03</ele></trkpt><trkpt lat="48.733244" lon="17.538471"><time>2023-07-10T10:05:32.000Z</time><ele>428.48</ele></trkpt><trkpt lat="48.733292" lon="17.538456"><time>2023-07-10T10:05:34.000Z</time><ele>429.72</ele></trkpt><trkpt lat="48.733341" lon="17.538435"><time>2023-07-10T10:05:37.000Z</time><ele>431.49</ele></trkpt><trkpt lat="48.733387" lon="17.538411"><time>2023-07-10T10:05:39.000Z</time><ele>432.82</ele></trkpt><trkpt lat="48.733439" lon="17.538409"><time>2023-07-10T10:05:41.000Z</time><ele>435.12</ele></trkpt><trkpt lat="48.733495" lon="17.538389"><time>2023-07-10T10:05:43.000Z</time><ele>441.27</ele></trkpt><trkpt lat="48.733545" lon="17.538371"><time>2023-07-10T10:05:45.000Z</time><ele>443.64</ele></trkpt><trkpt lat="48.733598" lon="17.538353"><time>2023-07-10T10:05:47.000Z</time><ele>444.89</ele></trkpt><trkpt lat="48.733643" lon="17.538319"><time>2023-07-10T10:05:49.000Z</time><ele>447.5</ele></trkpt><trkpt lat="48.73367" lon="17.538262"><time>2023-07-10T10:05:51.000Z</time><ele>447.49</ele></trkpt><trkpt lat="48.733649" lon="17.538173"><time>2023-07-10T10:05:54.000Z</time><ele>448.52</ele></trkpt><trkpt lat="48.733625" lon="17.538045"><time>2023-07-10T10:05:56.000Z</time><ele>445.52</ele></trkpt><trkpt lat="48.73364" lon="17.537945"><time>2023-07-10T10:05:58.000Z</time><ele>445.52</ele></trkpt><trkpt lat="48.733701" lon="17.537915"><time>2023-07-10T10:06:00.000Z</time><ele>445.12</ele></trkpt><trkpt lat="48.733767" lon="17.537907"><time>2023-07-10T10:06:02.000Z</time><ele>444.56</ele></trkpt><trkpt lat="48.733927" lon="17.537814"><time>2023-07-10T10:06:06.000Z</time><ele>446.35</ele></trkpt><trkpt lat="48.733999" lon="17.537836"><time>2023-07-10T10:06:09.000Z</time><ele>445</ele></trkpt><trkpt lat="48.734053" lon="17.537878"><time>2023-07-10T10:06:12.000Z</time><ele>444.36</ele></trkpt><trkpt lat="48.734222" lon="17.538029"><time>2023-07-10T10:06:16.000Z</time><ele>442.89</ele></trkpt><trkpt lat="48.734254" lon="17.53808"><time>2023-07-10T10:06:17.000Z</time><ele>442.87</ele></trkpt><trkpt lat="48.734281" lon="17.538141"><time>2023-07-10T10:06:18.000Z</time><ele>442.6</ele></trkpt><trkpt lat="48.734199" lon="17.53832"><time>2023-07-10T10:06:21.000Z</time><ele>441.54</ele></trkpt><trkpt lat="48.734225" lon="17.538382"><time>2023-07-10T10:06:23.000Z</time><ele>441.08</ele></trkpt><trkpt lat="48.734298" lon="17.538469"><time>2023-07-10T10:06:25.000Z</time><ele>438.79</ele></trkpt><trkpt lat="48.734361" lon="17.538503"><time>2023-07-10T10:06:28.000Z</time><ele>435.69</ele></trkpt><trkpt lat="48.734421" lon="17.538515"><time>2023-07-10T10:06:30.000Z</time><ele>435.67</ele></trkpt><trkpt lat="48.734497" lon="17.538564"><time>2023-07-10T10:06:32.000Z</time><ele>436.5</ele></trkpt><trkpt lat="48.734542" lon="17.538583"><time>2023-07-10T10:06:33.000Z</time><ele>436.42</ele></trkpt><trkpt lat="48.734592" lon="17.538605"><time>2023-07-10T10:06:34.000Z</time><ele>436.43</ele></trkpt><trkpt lat="48.734639" lon="17.538578"><time>2023-07-10T10:06:36.000Z</time><ele>437.71</ele></trkpt><trkpt lat="48.734699" lon="17.538606"><time>2023-07-10T10:06:38.000Z</time><ele>438.34</ele></trkpt><trkpt lat="48.734758" lon="17.538637"><time>2023-07-10T10:06:40.000Z</time><ele>438.69</ele></trkpt><trkpt lat="48.734808" lon="17.538667"><time>2023-07-10T10:06:42.000Z</time><ele>440.12</ele></trkpt><trkpt lat="48.734867" lon="17.538731"><time>2023-07-10T10:06:45.000Z</time><ele>440.24</ele></trkpt><trkpt lat="48.734882" lon="17.5388"><time>2023-07-10T10:06:47.000Z</time><ele>440.6</ele></trkpt><trkpt lat="48.734876" lon="17.538873"><time>2023-07-10T10:06:49.000Z</time><ele>440.02</ele></trkpt><trkpt lat="48.734796" lon="17.539311"><time>2023-07-10T10:06:55.000Z</time><ele>435.27</ele></trkpt><trkpt lat="48.734758" lon="17.539384"><time>2023-07-10T10:06:57.000Z</time><ele>432.11</ele></trkpt><trkpt lat="48.734718" lon="17.539469"><time>2023-07-10T10:06:59.000Z</time><ele>429.75</ele></trkpt><trkpt lat="48.734715" lon="17.539545"><time>2023-07-10T10:07:02.000Z</time><ele>428.56</ele></trkpt><trkpt lat="48.734727" lon="17.539649"><time>2023-07-10T10:07:05.000Z</time><ele>427.46</ele></trkpt><trkpt lat="48.73477" lon="17.539715"><time>2023-07-10T10:07:07.000Z</time><ele>425.86</ele></trkpt><trkpt lat="48.734844" lon="17.53976"><time>2023-07-10T10:07:09.000Z</time><ele>425.88</ele></trkpt><trkpt lat="48.734871" lon="17.539859"><time>2023-07-10T10:07:11.000Z</time><ele>423.19</ele></trkpt><trkpt lat="48.734866" lon="17.539965"><time>2023-07-10T10:07:13.000Z</time><ele>422.06</ele></trkpt><trkpt lat="48.734916" lon="17.540059"><time>2023-07-10T10:07:15.000Z</time><ele>420.66</ele></trkpt><trkpt lat="48.734951" lon="17.540139"><time>2023-07-10T10:07:17.000Z</time><ele>419.25</ele></trkpt><trkpt lat="48.734939" lon="17.54024"><time>2023-07-10T10:07:19.000Z</time><ele>419.09</ele></trkpt><trkpt lat="48.734945" lon="17.540354"><time>2023-07-10T10:07:21.000Z</time><ele>417.98</ele></trkpt><trkpt lat="48.734951" lon="17.540464"><time>2023-07-10T10:07:23.000Z</time><ele>416.17</ele></trkpt><trkpt lat="48.734963" lon="17.540569"><time>2023-07-10T10:07:25.000Z</time><ele>414.03</ele></trkpt><trkpt lat="48.735018" lon="17.540648"><time>2023-07-10T10:07:27.000Z</time><ele>413.77</ele></trkpt><trkpt lat="48.735084" lon="17.540728"><time>2023-07-10T10:07:29.000Z</time><ele>411.25</ele></trkpt><trkpt lat="48.735094" lon="17.540854"><time>2023-07-10T10:07:31.000Z</time><ele>409.75</ele></trkpt><trkpt lat="48.73514" lon="17.540926"><time>2023-07-10T10:07:34.000Z</time><ele>409.76</ele></trkpt><trkpt lat="48.735206" lon="17.540931"><time>2023-07-10T10:07:36.000Z</time><ele>406.81</ele></trkpt><trkpt lat="48.735231" lon="17.54102"><time>2023-07-10T10:07:38.000Z</time><ele>405.56</ele></trkpt><trkpt lat="48.735255" lon="17.541125"><time>2023-07-10T10:07:40.000Z</time><ele>403.84</ele></trkpt><trkpt lat="48.735285" lon="17.541183"><time>2023-07-10T10:07:41.000Z</time><ele>403.03</ele></trkpt><trkpt lat="48.735309" lon="17.541242"><time>2023-07-10T10:07:42.000Z</time><ele>402.17</ele></trkpt><trkpt lat="48.73533" lon="17.541301"><time>2023-07-10T10:07:43.000Z</time><ele>401.58</ele></trkpt><trkpt lat="48.735336" lon="17.541374"><time>2023-07-10T10:07:44.000Z</time><ele>401.28</ele></trkpt><trkpt lat="48.735361" lon="17.541613"><time>2023-07-10T10:07:47.000Z</time><ele>397.74</ele></trkpt><trkpt lat="48.735377" lon="17.541683"><time>2023-07-10T10:07:48.000Z</time><ele>398.24</ele></trkpt><trkpt lat="48.735415" lon="17.541813"><time>2023-07-10T10:07:50.000Z</time><ele>395.61</ele></trkpt><trkpt lat="48.73547" lon="17.541831"><time>2023-07-10T10:07:52.000Z</time><ele>395.63</ele></trkpt><trkpt lat="48.735549" lon="17.54183"><time>2023-07-10T10:07:54.000Z</time><ele>395.22</ele></trkpt><trkpt lat="48.735643" lon="17.541839"><time>2023-07-10T10:07:56.000Z</time><ele>395.31</ele></trkpt><trkpt lat="48.735689" lon="17.541865"><time>2023-07-10T10:07:57.000Z</time><ele>393.95</ele></trkpt><trkpt lat="48.735684" lon="17.541963"><time>2023-07-10T10:07:59.000Z</time><ele>392.85</ele></trkpt><trkpt lat="48.735679" lon="17.542075"><time>2023-07-10T10:08:01.000Z</time><ele>392.51</ele></trkpt><trkpt lat="48.735674" lon="17.54216"><time>2023-07-10T10:08:02.000Z</time><ele>391.66</ele></trkpt><trkpt lat="48.73566" lon="17.542226"><time>2023-07-10T10:08:03.000Z</time><ele>391.27</ele></trkpt><trkpt lat="48.735651" lon="17.542343"><time>2023-07-10T10:08:06.000Z</time><ele>391.12</ele></trkpt><trkpt lat="48.735715" lon="17.542382"><time>2023-07-10T10:08:08.000Z</time><ele>390.12</ele></trkpt><trkpt lat="48.735767" lon="17.5424"><time>2023-07-10T10:08:11.000Z</time><ele>387.67</ele></trkpt><trkpt lat="48.735815" lon="17.542427"><time>2023-07-10T10:08:14.000Z</time><ele>387.93</ele></trkpt><trkpt lat="48.735858" lon="17.542479"><time>2023-07-10T10:08:16.000Z</time><ele>387.07</ele></trkpt><trkpt lat="48.735922" lon="17.542557"><time>2023-07-10T10:08:18.000Z</time><ele>386.69</ele></trkpt><trkpt lat="48.735963" lon="17.542604"><time>2023-07-10T10:08:19.000Z</time><ele>387.12</ele></trkpt><trkpt lat="48.735987" lon="17.542666"><time>2023-07-10T10:08:20.000Z</time><ele>385.88</ele></trkpt><trkpt lat="48.736037" lon="17.54278"><time>2023-07-10T10:08:22.000Z</time><ele>383.83</ele></trkpt><trkpt lat="48.736061" lon="17.542847"><time>2023-07-10T10:08:23.000Z</time><ele>382.94</ele></trkpt><trkpt lat="48.736076" lon="17.542926"><time>2023-07-10T10:08:25.000Z</time><ele>382.22</ele></trkpt><trkpt lat="48.736099" lon="17.543003"><time>2023-07-10T10:08:27.000Z</time><ele>381.92</ele></trkpt><trkpt lat="48.736157" lon="17.543062"><time>2023-07-10T10:08:29.000Z</time><ele>380.79</ele></trkpt><trkpt lat="48.736188" lon="17.543112"><time>2023-07-10T10:08:30.000Z</time><ele>380.43</ele></trkpt><trkpt lat="48.736248" lon="17.543214"><time>2023-07-10T10:08:32.000Z</time><ele>379.37</ele></trkpt><trkpt lat="48.736287" lon="17.543254"><time>2023-07-10T10:08:33.000Z</time><ele>379.19</ele></trkpt><trkpt lat="48.736349" lon="17.543279"><time>2023-07-10T10:08:35.000Z</time><ele>378.41</ele></trkpt><trkpt lat="48.736402" lon="17.543329"><time>2023-07-10T10:08:37.000Z</time><ele>377.13</ele></trkpt><trkpt lat="48.73647" lon="17.543386"><time>2023-07-10T10:08:39.000Z</time><ele>376.7</ele></trkpt><trkpt lat="48.736553" lon="17.543413"><time>2023-07-10T10:08:41.000Z</time><ele>375.98</ele></trkpt><trkpt lat="48.736635" lon="17.543435"><time>2023-07-10T10:08:43.000Z</time><ele>375.35</ele></trkpt><trkpt lat="48.736711" lon="17.543476"><time>2023-07-10T10:08:45.000Z</time><ele>374.75</ele></trkpt><trkpt lat="48.736801" lon="17.543538"><time>2023-07-10T10:08:47.000Z</time><ele>373.66</ele></trkpt><trkpt lat="48.736849" lon="17.543554"><time>2023-07-10T10:08:48.000Z</time><ele>371.48</ele></trkpt><trkpt lat="48.736899" lon="17.543585"><time>2023-07-10T10:08:49.000Z</time><ele>371.52</ele></trkpt><trkpt lat="48.736955" lon="17.543606"><time>2023-07-10T10:08:50.000Z</time><ele>371.38</ele></trkpt><trkpt lat="48.737005" lon="17.543614"><time>2023-07-10T10:08:51.000Z</time><ele>370.26</ele></trkpt><trkpt lat="48.737052" lon="17.543625"><time>2023-07-10T10:08:52.000Z</time><ele>369.54</ele></trkpt><trkpt lat="48.737124" lon="17.543639"><time>2023-07-10T10:08:54.000Z</time><ele>367.41</ele></trkpt><trkpt lat="48.737175" lon="17.543626"><time>2023-07-10T10:08:56.000Z</time><ele>366</ele></trkpt><trkpt lat="48.737226" lon="17.543546"><time>2023-07-10T10:08:58.000Z</time><ele>365.34</ele></trkpt><trkpt lat="48.737295" lon="17.543455"><time>2023-07-10T10:09:00.000Z</time><ele>364.59</ele></trkpt><trkpt lat="48.737339" lon="17.54341"><time>2023-07-10T10:09:01.000Z</time><ele>364.42</ele></trkpt><trkpt lat="48.737395" lon="17.543369"><time>2023-07-10T10:09:02.000Z</time><ele>363.4</ele></trkpt><trkpt lat="48.737458" lon="17.543335"><time>2023-07-10T10:09:03.000Z</time><ele>363.06</ele></trkpt><trkpt lat="48.737523" lon="17.543297"><time>2023-07-10T10:09:04.000Z</time><ele>363.74</ele></trkpt><trkpt lat="48.737594" lon="17.543269"><time>2023-07-10T10:09:05.000Z</time><ele>363</ele></trkpt><trkpt lat="48.737668" lon="17.543229"><time>2023-07-10T10:09:06.000Z</time><ele>362.85</ele></trkpt><trkpt lat="48.737731" lon="17.543188"><time>2023-07-10T10:09:07.000Z</time><ele>362.71</ele></trkpt><trkpt lat="48.737795" lon="17.543139"><time>2023-07-10T10:09:08.000Z</time><ele>362.49</ele></trkpt><trkpt lat="48.737859" lon="17.543082"><time>2023-07-10T10:09:09.000Z</time><ele>362.38</ele></trkpt><trkpt lat="48.737926" lon="17.543025"><time>2023-07-10T10:09:10.000Z</time><ele>361.85</ele></trkpt><trkpt lat="48.737992" lon="17.542965"><time>2023-07-10T10:09:11.000Z</time><ele>360.71</ele></trkpt><trkpt lat="48.738061" lon="17.542893"><time>2023-07-10T10:09:12.000Z</time><ele>359.18</ele></trkpt><trkpt lat="48.738129" lon="17.542832"><time>2023-07-10T10:09:13.000Z</time><ele>358.19</ele></trkpt><trkpt lat="48.738197" lon="17.542772"><time>2023-07-10T10:09:14.000Z</time><ele>357.1</ele></trkpt><trkpt lat="48.738267" lon="17.542713"><time>2023-07-10T10:09:15.000Z</time><ele>356.75</ele></trkpt><trkpt lat="48.738337" lon="17.542653"><time>2023-07-10T10:09:16.000Z</time><ele>355.84</ele></trkpt><trkpt lat="48.738404" lon="17.542601"><time>2023-07-10T10:09:17.000Z</time><ele>355.05</ele></trkpt><trkpt lat="48.738472" lon="17.542558"><time>2023-07-10T10:09:18.000Z</time><ele>355.11</ele></trkpt><trkpt lat="48.738542" lon="17.542512"><time>2023-07-10T10:09:19.000Z</time><ele>354.97</ele></trkpt><trkpt lat="48.738604" lon="17.542464"><time>2023-07-10T10:09:20.000Z</time><ele>353.68</ele></trkpt><trkpt lat="48.738655" lon="17.542418"><time>2023-07-10T10:09:21.000Z</time><ele>353.15</ele></trkpt><trkpt lat="48.738748" lon="17.542298"><time>2023-07-10T10:09:24.000Z</time><ele>349.34</ele></trkpt><trkpt lat="48.738758" lon="17.542231"><time>2023-07-10T10:09:31.000Z</time><ele>345.76</ele></trkpt><trkpt lat="48.738758" lon="17.542231"><time>2023-07-10T10:09:31.001Z</time><ele>345.76</ele></trkpt></trkseg></trk></gpx>